Time;durP1;ratioP1;P1;durP2;ratioP2;P2;SDS_P1;SDS_P2;PMS_P1;PMS_P2;Temp;Humidity;BMP_temperature;BMP_pressure;BME280_temperature;BME280_humidity;BME280_pressure;Samples;Min_cycle;Max_cycle;Signal;HPM_P1;HPM_P2
2021/05/25 00:00:44;;;;;;;1.40;1.30;;;11.20;76.60;;;;;;5079213;28;20457;-48
2021/05/25 00:03:14;;;;;;;2.17;1.20;;;11.20;76.60;;;;;;5073895;28;20899;-47
2021/05/25 00:05:42;;;;;;;1.83;1.13;;;11.20;76.40;;;;;;5076698;28;20452;-47
2021/05/25 00:08:10;;;;;;;1.83;1.00;;;11.30;76.40;;;;;;5077939;28;20750;-47
2021/05/25 00:10:38;;;;;;;3.07;1.00;;;11.20;76.40;;;;;;5077580;28;20488;-48
2021/05/25 00:13:07;;;;;;;1.10;1.00;;;11.20;76.30;;;;;;5076909;28;20949;-48
2021/05/25 00:15:35;;;;;;;3.47;0.90;;;11.30;76.50;;;;;;5077204;28;20459;-47
2021/05/25 00:18:05;;;;;;;4.43;1.57;;;11.30;75.50;;;;;;5076881;28;20833;-47
2021/05/25 00:20:34;;;;;;;1.07;0.97;;;11.20;75.60;;;;;;5077148;28;20455;-47
2021/05/25 00:23:02;;;;;;;0.70;0.70;;;11.20;76.20;;;;;;5079809;28;20476;-48
2021/05/25 00:25:32;;;;;;;1.90;0.90;;;11.20;75.70;;;;;;5083619;28;20929;-47
2021/05/25 00:28:00;;;;;;;1.60;0.97;;;11.20;75.40;;;;;;5079748;28;20449;-47
2021/05/25 00:30:28;;;;;;;3.40;1.40;;;11.20;75.00;;;;;;5081154;28;20471;-47
2021/05/25 00:32:56;;;;;;;1.30;1.20;;;11.20;75.00;;;;;;5081312;28;21562;-48
2021/05/25 00:35:26;;;;;;;2.40;1.30;;;11.20;74.80;;;;;;5079688;28;20796;-47
2021/05/25 00:37:55;;;;;;;1.20;1.10;;;11.20;74.70;;;;;;5081455;28;20456;-48
2021/05/25 00:40:23;;;;;;;1.93;1.00;;;11.20;75.10;;;;;;5081297;28;20456;-47
2021/05/25 00:42:51;;;;;;;2.73;1.20;;;11.20;75.00;;;;;;5078144;28;20480;-48
2021/05/25 00:45:19;;;;;;;1.30;1.20;;;11.10;75.00;;;;;;5082768;28;20464;-47
2021/05/25 00:47:47;;;;;;;2.30;1.57;;;11.10;74.70;;;;;;5081497;28;20552;-48
2021/05/25 00:50:20;;;;;;;1.90;1.57;;;11.10;75.00;;;;;;5080191;28;20460;-47
2021/05/25 00:52:59;;;;;;;2.27;1.50;;;11.00;75.00;;;;;;5081908;28;20469;-47
2021/05/25 00:55:34;;;;;;;1.57;1.40;;;11.00;74.80;;;;;;5085268;28;20465;-47
2021/05/25 00:58:04;;;;;;;2.57;1.33;;;11.00;75.10;;;;;;5078499;28;20450;-47
2021/05/25 01:00:39;;;;;;;1.80;1.33;;;11.00;74.80;;;;;;5083473;28;20452;-47
2021/05/25 01:03:08;;;;;;;1.90;1.70;;;11.00;74.60;;;;;;5080598;28;20484;-47
2021/05/25 01:05:36;;;;;;;1.20;1.10;;;11.00;74.80;;;;;;5084479;28;20807;-47
2021/05/25 01:08:05;;;;;;;1.50;1.40;;;11.00;75.10;;;;;;5082501;28;20840;-47
2021/05/25 01:10:36;;;;;;;2.63;1.60;;;11.00;74.90;;;;;;5079978;28;20805;-48
2021/05/25 01:13:08;;;;;;;3.90;1.53;;;11.00;74.90;;;;;;5077640;28;20465;-47
2021/05/25 01:15:38;;;;;;;2.03;1.90;;;11.00;74.80;;;;;;5084956;28;20467;-48
2021/05/25 01:18:06;;;;;;;2.80;1.60;;;11.00;74.40;;;;;;5076230;28;20933;-47
2021/05/25 01:20:37;;;;;;;3.63;1.50;;;11.00;74.50;;;;;;5081312;28;20859;-47
2021/05/25 01:23:09;;;;;;;1.73;1.40;;;11.00;74.50;;;;;;5080733;28;20501;-47
2021/05/25 01:25:40;;;;;;;4.90;1.90;;;11.10;74.20;;;;;;5079402;28;20473;-48
2021/05/25 01:28:10;;;;;;;1.73;1.53;;;11.10;74.50;;;;;;5080121;28;20445;-47
2021/05/25 01:30:42;;;;;;;1.50;1.40;;;11.10;74.40;;;;;;5082199;28;20472;-47
2021/05/25 01:33:11;;;;;;;2.40;1.50;;;11.10;74.20;;;;;;5081119;28;20460;-47
2021/05/25 01:35:39;;;;;;;2.07;1.53;;;11.10;73.90;;;;;;5078411;28;20463;-47
2021/05/25 01:38:09;;;;;;;1.60;1.30;;;11.10;73.60;;;;;;5081299;28;20811;-48
2021/05/25 01:40:39;;;;;;;3.80;1.20;;;11.10;73.70;;;;;;5077837;28;20460;-47
2021/05/25 01:43:09;;;;;;;2.50;1.53;;;11.10;73.90;;;;;;5080591;28;20620;-47
2021/05/25 01:45:38;;;;;;;1.53;1.17;;;11.10;73.70;;;;;;5080375;28;20456;-47
2021/05/25 01:48:08;;;;;;;1.50;1.40;;;11.10;73.90;;;;;;5078436;28;20454;-47
2021/05/25 01:50:38;;;;;;;1.60;1.50;;;11.10;73.70;;;;;;5081551;28;20484;-47
2021/05/25 01:53:16;;;;;;;2.03;1.20;;;11.10;73.90;;;;;;5081887;28;20815;-47
2021/05/25 01:55:52;;;;;;;0.97;0.80;;;11.10;74.10;;;;;;5080220;28;20465;-48
2021/05/25 01:58:27;;;;;;;4.20;1.13;;;11.10;74.10;;;;;;5083052;28;20461;-48
2021/05/25 02:01:04;;;;;;;1.73;1.07;;;11.10;74.10;;;;;;5078313;28;20449;-47
2021/05/25 02:03:33;;;;;;;1.63;0.90;;;11.20;74.00;;;;;;5080039;28;20484;-48
2021/05/25 02:06:01;;;;;;;2.00;0.97;;;11.20;73.60;;;;;;5079212;28;21052;-47
2021/05/25 02:08:29;;;;;;;1.70;1.33;;;11.20;73.70;;;;;;5080168;28;20469;-48
2021/05/25 02:11:02;;;;;;;2.30;1.33;;;11.20;73.90;;;;;;5079434;28;20493;-47
2021/05/25 02:13:35;;;;;;;3.90;0.93;;;11.10;74.10;;;;;;5083091;28;20453;-48
2021/05/25 02:16:10;;;;;;;2.00;1.10;;;11.10;73.80;;;;;;5079069;28;20449;-47
2021/05/25 02:18:45;;;;;;;2.70;1.20;;;11.10;73.70;;;;;;5081754;28;20822;-47
2021/05/25 02:21:15;;;;;;;1.93;1.30;;;11.10;73.70;;;;;;5077561;28;20948;-47
2021/05/25 02:23:45;;;;;;;1.17;1.03;;;11.10;74.20;;;;;;5079119;28;21006;-47
2021/05/25 02:26:13;;;;;;;1.40;1.10;;;11.10;73.90;;;;;;5080032;28;20440;-47
2021/05/25 02:28:41;;;;;;;1.07;0.80;;;11.10;74.00;;;;;;5078054;28;21037;-47
2021/05/25 02:31:11;;;;;;;2.13;1.50;;;11.20;74.10;;;;;;5078061;28;20864;-47
2021/05/25 02:33:39;;;;;;;1.70;1.30;;;11.20;73.40;;;;;;5077513;28;20456;-47
2021/05/25 02:36:07;;;;;;;1.20;1.10;;;11.20;73.40;;;;;;5076044;28;20844;-47
2021/05/25 02:38:35;;;;;;;1.20;0.97;;;11.20;73.30;;;;;;5074404;28;20453;-47
2021/05/25 02:41:04;;;;;;;4.13;1.10;;;11.10;73.50;;;;;;5078386;28;20485;-47
2021/05/25 02:43:32;;;;;;;1.40;0.90;;;11.10;73.70;;;;;;5080325;28;20815;-48
2021/05/25 02:46:00;;;;;;;1.57;1.47;;;11.10;73.50;;;;;;5074788;28;20462;-47
2021/05/25 02:48:28;;;;;;;5.10;1.33;;;11.20;73.50;;;;;;5079871;28;20464;-48
2021/05/25 02:50:57;;;;;;;1.40;1.20;;;11.10;73.50;;;;;;5074242;28;20842;-47
2021/05/25 02:53:26;;;;;;;1.20;1.10;;;11.10;73.40;;;;;;5077526;28;20970;-48
2021/05/25 02:55:54;;;;;;;3.20;1.73;;;11.20;72.70;;;;;;5078939;28;20470;-48
2021/05/25 02:58:24;;;;;;;1.97;1.17;;;11.20;72.60;;;;;;5076387;28;20445;-47
2021/05/25 03:00:53;;;;;;;1.47;1.30;;;11.10;72.70;;;;;;5077157;28;20457;-49
2021/05/25 03:03:21;;;;;;;1.23;1.13;;;11.10;72.90;;;;;;5075554;28;20850;-50
2021/05/25 03:05:49;;;;;;;2.07;1.67;;;11.10;72.90;;;;;;5078106;28;20475;-50
2021/05/25 03:08:17;;;;;;;1.00;1.00;;;11.20;72.50;;;;;;5075699;28;20477;-49
2021/05/25 03:10:48;;;;;;;2.83;2.30;;;11.10;72.80;;;;;;5074804;28;20454;-49
2021/05/25 03:13:17;;;;;;;1.57;1.40;;;11.10;72.80;;;;;;5079394;28;20468;-49
2021/05/25 03:15:48;;;;;;;1.27;1.17;;;11.10;73.00;;;;;;5077970;28;20482;-50
2021/05/25 03:18:16;;;;;;;1.93;1.13;;;11.20;72.40;;;;;;5075252;28;20438;-50
2021/05/25 03:20:48;;;;;;;2.33;1.47;;;11.20;72.40;;;;;;5078685;28;20453;-50
2021/05/25 03:23:17;;;;;;;2.87;1.60;;;11.20;72.00;;;;;;5074856;28;20950;-50
2021/05/25 03:25:47;;;;;;;2.30;1.10;;;11.20;72.30;;;;;;5078324;28;20882;-50
2021/05/25 03:28:15;;;;;;;3.30;1.37;;;11.20;72.40;;;;;;5074804;28;20457;-50
2021/05/25 03:30:43;;;;;;;2.60;1.13;;;11.10;72.60;;;;;;5081202;28;20469;-50
2021/05/25 03:33:12;;;;;;;2.70;1.10;;;11.10;72.70;;;;;;5077646;28;20461;-50
2021/05/25 03:35:40;;;;;;;4.90;1.10;;;11.10;72.30;;;;;;5077091;28;20491;-50
2021/05/25 03:38:08;;;;;;;3.10;0.93;;;11.20;72.30;;;;;;5077266;28;20452;-50
2021/05/25 03:40:36;;;;;;;3.40;1.00;;;11.20;72.10;;;;;;5076247;28;20456;-50
2021/05/25 03:43:04;;;;;;;1.30;0.87;;;11.10;72.40;;;;;;5076449;28;20483;-50
2021/05/25 03:45:32;;;;;;;4.10;1.13;;;11.10;72.40;;;;;;5074556;28;20445;-50
2021/05/25 03:48:00;;;;;;;5.57;1.20;;;11.10;72.60;;;;;;5078243;28;20442;-50
2021/05/25 03:50:29;;;;;;;3.90;0.80;;;11.10;72.30;;;;;;5078519;28;21023;-50
2021/05/25 03:52:57;;;;;;;2.87;1.13;;;11.20;72.10;;;;;;5076123;28;20472;-50
2021/05/25 03:55:49;;;;;;;;;;;;;;;;;;;;;
2021/05/25 04:00:58;;;;;;;1.50;0.93;;;11.10;72.40;;;;;;5081267;28;20903;-50
2021/05/25 04:03:27;;;;;;;2.17;1.03;;;11.10;72.40;;;;;;5081293;28;20826;-50
2021/05/25 04:05:55;;;;;;;2.40;1.10;;;11.20;72.20;;;;;;5078483;28;20972;-50
2021/05/25 04:08:23;;;;;;;2.10;1.50;;;11.20;71.90;;;;;;5085069;28;20774;-49
2021/05/25 04:10:51;;;;;;;2.30;1.33;;;11.20;72.00;;;;;;5082489;28;20946;-50
2021/05/25 04:13:20;;;;;;;3.43;1.17;;;11.20;72.00;;;;;;5082919;28;20453;-50
2021/05/25 04:15:51;;;;;;;0.90;0.90;;;11.10;72.30;;;;;;5086679;28;20463;-50
2021/05/25 04:18:20;;;;;;;4.60;1.20;;;11.20;72.30;;;;;;5084198;28;20440;-50
2021/05/25 04:20:49;;;;;;;2.53;1.30;;;11.20;72.30;;;;;;5085172;28;20654;-50
2021/05/25 04:23:17;;;;;;;2.10;0.90;;;11.20;72.10;;;;;;5082551;28;20492;-50
2021/05/25 04:25:47;;;;;;;1.43;0.80;;;11.20;71.80;;;;;;5086347;28;20440;-50
2021/05/25 04:28:15;;;;;;;2.67;1.37;;;11.20;71.80;;;;;;5084751;28;20455;-50
2021/05/25 04:30:44;;;;;;;3.43;1.13;;;11.20;71.40;;;;;;5085062;28;20756;-50
2021/05/25 04:33:12;;;;;;;1.90;0.97;;;11.20;71.70;;;;;;5082670;28;20813;-50
2021/05/25 04:35:40;;;;;;;2.60;1.10;;;11.20;71.70;;;;;;5085705;28;20460;-50
2021/05/25 04:38:09;;;;;;;1.83;1.07;;;11.20;71.80;;;;;;5082361;28;20456;-50
2021/05/25 04:40:40;;;;;;;2.80;0.90;;;11.10;71.80;;;;;;5082708;28;20997;-50
2021/05/25 04:43:10;;;;;;;1.57;0.80;;;11.10;71.70;;;;;;5086614;28;20476;-50
2021/05/25 04:45:39;;;;;;;2.27;1.10;;;11.10;72.00;;;;;;5077390;28;20808;-50
2021/05/25 04:48:07;;;;;;;2.07;1.80;;;11.10;72.00;;;;;;5084557;28;20945;-50
2021/05/25 04:50:36;;;;;;;1.80;0.80;;;11.10;72.20;;;;;;5081580;28;20454;-50
2021/05/25 04:53:05;;;;;;;1.47;1.13;;;11.10;72.00;;;;;;5085415;28;20826;-50
2021/05/25 04:55:33;;;;;;;2.23;0.90;;;11.10;71.90;;;;;;5081242;28;20461;-50
2021/05/25 04:58:01;;;;;;;2.97;1.10;;;11.10;71.70;;;;;;5083333;28;20453;-50
2021/05/25 05:00:30;;;;;;;2.20;1.00;;;11.10;71.50;;;;;;5079512;28;20795;-50
2021/05/25 05:02:58;;;;;;;1.73;0.70;;;11.10;71.20;;;;;;5083250;28;20464;-50
2021/05/25 05:05:26;;;;;;;1.27;0.90;;;11.10;71.50;;;;;;5082484;28;20445;-50
2021/05/25 05:07:54;;;;;;;5.20;0.87;;;11.10;71.70;;;;;;5083673;28;20484;-50
2021/05/25 05:10:22;;;;;;;1.53;0.90;;;11.10;72.20;;;;;;5080577;28;20467;-50
2021/05/25 05:12:51;;;;;;;3.57;1.10;;;11.10;73.00;;;;;;5080743;28;20446;-50
2021/05/25 05:15:19;;;;;;;3.07;1.17;;;11.00;72.90;;;;;;5082587;28;20816;-50
2021/05/25 05:17:49;;;;;;;2.20;0.90;;;11.00;73.30;;;;;;5084279;28;20476;-50
2021/05/25 05:20:17;;;;;;;2.03;0.73;;;11.00;74.30;;;;;;5085648;28;20447;-50
2021/05/25 05:22:45;;;;;;;2.13;0.80;;;10.90;74.60;;;;;;5082765;28;20461;-50
2021/05/25 05:25:15;;;;;;;1.90;0.87;;;10.90;74.90;;;;;;5083598;28;20462;-50
2021/05/25 05:27:43;;;;;;;2.20;0.90;;;10.90;74.80;;;;;;5086068;28;20468;-50
2021/05/25 05:30:12;;;;;;;3.87;0.93;;;10.80;75.10;;;;;;5084188;28;20461;-50
2021/05/25 05:32:40;;;;;;;2.53;0.80;;;10.80;75.70;;;;;;5083472;28;20449;-50
2021/05/25 05:35:09;;;;;;;3.17;1.07;;;10.80;76.10;;;;;;5083279;28;20469;-50
2021/05/25 05:37:37;;;;;;;2.60;0.93;;;10.70;75.80;;;;;;5082387;28;20464;-50
2021/05/25 05:40:07;;;;;;;1.33;0.87;;;10.80;76.10;;;;;;5080754;28;20448;-50
2021/05/25 05:42:56;;;;;;;2.23;0.70;;;10.80;76.30;;;;;;5081573;28;20449;-50
2021/05/25 05:45:24;;;;;;;2.50;0.80;;;10.80;76.10;;;;;;5080739;28;20808;-50
2021/05/25 05:47:52;;;;;;;1.83;0.70;;;10.80;76.50;;;;;;5081373;28;20532;-50
2021/05/25 05:50:20;;;;;;;10.97;6.47;;;10.80;76.20;;;;;;5083857;28;20449;-50
2021/05/25 05:52:49;;;;;;;3.80;1.60;;;10.80;75.90;;;;;;5080687;28;20464;-50
2021/05/25 05:55:18;;;;;;;3.53;0.80;;;10.80;76.60;;;;;;5080857;28;20817;-50
2021/05/25 05:57:51;;;;;;;3.13;1.33;;;10.80;77.30;;;;;;5083436;28;20445;-50
2021/05/25 06:00:21;;;;;;;1.00;0.70;;;10.80;77.20;;;;;;5078727;28;20446;-51
2021/05/25 06:02:50;;;;;;;1.80;0.87;;;10.80;77.80;;;;;;5081316;28;20449;-51
2021/05/25 06:05:18;;;;;;;1.37;0.70;;;10.80;78.10;;;;;;5082113;28;20511;-50
2021/05/25 06:07:45;;;;;;;0.73;0.73;;;10.90;77.50;;;;;;5082021;28;20453;-49
2021/05/25 06:10:14;;;;;;;1.37;0.90;;;10.90;77.50;;;;;;5079294;28;20481;-50
2021/05/25 06:12:42;;;;;;;1.60;0.57;;;10.90;77.40;;;;;;5080874;28;20467;-50
2021/05/25 06:15:11;;;;;;;1.83;0.60;;;11.00;76.60;;;;;;5077917;28;20518;-50
2021/05/25 06:17:39;;;;;;;0.77;0.77;;;11.00;75.70;;;;;;5082524;28;20460;-50
2021/05/25 06:20:08;;;;;;;1.00;0.70;;;11.00;75.20;;;;;;5081962;28;20967;-50
2021/05/25 06:22:36;;;;;;;1.70;0.70;;;10.90;76.30;;;;;;5081758;28;20460;-50
2021/05/25 06:25:08;;;;;;;0.93;0.70;;;10.90;75.90;;;;;;5078886;28;20489;-50
2021/05/25 06:27:37;;;;;;;4.33;0.60;;;10.90;75.20;;;;;;5077422;28;20508;-50
2021/05/25 06:30:08;;;;;;;1.33;0.73;;;10.90;76.20;;;;;;5081231;28;20970;-49
2021/05/25 06:32:36;;;;;;;0.70;0.50;;;10.90;76.30;;;;;;5082587;28;20457;-50
2021/05/25 06:35:06;;;;;;;1.13;0.70;;;10.90;75.60;;;;;;5080137;28;20556;-50
2021/05/25 06:37:34;;;;;;;1.20;0.70;;;10.90;76.50;;;;;;5084001;28;20445;-50
2021/05/25 06:40:02;;;;;;;0.63;0.50;;;10.90;75.80;;;;;;5082296;28;20460;-50
2021/05/25 06:42:30;;;;;;;1.40;1.30;;;10.90;76.10;;;;;;5077379;28;20457;-50
2021/05/25 06:44:59;;;;;;;1.23;0.63;;;10.90;76.10;;;;;;5077993;28;20577;-50
2021/05/25 06:47:27;;;;;;;1.00;0.90;;;10.80;76.80;;;;;;5075654;28;20791;-50
2021/05/25 06:49:55;;;;;;;1.70;1.50;;;10.90;75.90;;;;;;5076121;28;20465;-50
2021/05/25 06:52:23;;;;;;;2.57;2.37;;;10.90;76.20;;;;;;5081799;28;20444;-50
2021/05/25 06:54:54;;;;;;;0.70;0.70;;;10.90;76.60;;;;;;5078604;28;20829;-50
2021/05/25 06:57:22;;;;;;;3.20;0.90;;;10.90;76.30;;;;;;5080275;28;20458;-50
2021/05/25 06:59:49;;;;;;;1.47;1.17;;;11.00;76.40;;;;;;5077417;28;20476;-50
2021/05/25 07:02:17;;;;;;;1.43;0.70;;;11.00;76.00;;;;;;5080869;28;20465;-50
2021/05/25 07:04:45;;;;;;;0.83;0.60;;;11.00;74.60;;;;;;5076142;28;20485;-50
2021/05/25 07:07:14;;;;;;;1.17;0.60;;;11.10;75.00;;;;;;5079687;28;20461;-50
2021/05/25 07:09:42;;;;;;;1.97;0.77;;;11.10;75.10;;;;;;5080420;28;20817;-50
2021/05/25 07:12:11;;;;;;;0.60;0.60;;;11.10;74.90;;;;;;5079238;28;20460;-50
2021/05/25 07:14:40;;;;;;;1.23;0.50;;;11.10;75.00;;;;;;5078349;28;20477;-50
2021/05/25 07:17:08;;;;;;;0.73;0.60;;;11.20;74.90;;;;;;5080505;28;20483;-50
2021/05/25 07:19:36;;;;;;;0.63;0.63;;;11.20;74.90;;;;;;5081134;28;20467;-50
2021/05/25 07:22:07;;;;;;;0.60;0.60;;;11.20;74.80;;;;;;5079198;28;20506;-50
2021/05/25 07:24:35;;;;;;;0.67;0.50;;;11.20;74.30;;;;;;5077437;28;20571;-50
2021/05/25 07:27:03;;;;;;;1.17;0.40;;;11.20;73.70;;;;;;5080350;28;20448;-50
2021/05/25 07:29:31;;;;;;;1.20;0.30;;;11.20;74.70;;;;;;5080477;28;20449;-51
2021/05/25 07:32:00;;;;;;;0.87;0.60;;;11.20;74.10;;;;;;5077075;28;20456;-50
2021/05/25 07:34:28;;;;;;;1.03;0.87;;;11.20;74.60;;;;;;5078644;28;20454;-49
2021/05/25 07:36:56;;;;;;;0.50;0.50;;;11.20;74.20;;;;;;5076536;28;20535;-50
2021/05/25 07:39:24;;;;;;;0.47;0.47;;;11.20;74.20;;;;;;5080734;28;20465;-50
2021/05/25 07:41:57;;;;;;;0.50;0.40;;;11.30;74.30;;;;;;5079834;28;20999;-50
2021/05/25 07:44:25;;;;;;;0.90;0.67;;;11.30;73.60;;;;;;5076080;28;20857;-50
2021/05/25 07:46:53;;;;;;;1.60;0.47;;;11.40;73.70;;;;;;5079861;28;20448;-50
2021/05/25 07:49:21;;;;;;;0.50;0.40;;;11.50;73.20;;;;;;5078737;28;20877;-50
2021/05/25 07:51:51;;;;;;;1.00;0.50;;;11.50;73.30;;;;;;5083708;28;20453;-50
2021/05/25 07:54:19;;;;;;;0.57;0.40;;;11.50;73.60;;;;;;5080082;28;20445;-50
2021/05/25 07:56:47;;;;;;;1.70;0.80;;;11.60;72.40;;;;;;5078896;28;20463;-50
2021/05/25 07:59:15;;;;;;;0.50;0.30;;;11.60;72.80;;;;;;5077550;28;20468;-50
2021/05/25 08:01:44;;;;;;;0.50;0.50;;;11.70;72.70;;;;;;5082240;28;20831;-50
2021/05/25 08:04:12;;;;;;;1.13;0.67;;;11.70;72.40;;;;;;5081956;28;20502;-49
2021/05/25 08:06:39;;;;;;;0.80;0.47;;;11.70;73.10;;;;;;5078848;28;20472;-49
2021/05/25 08:09:08;;;;;;;0.90;0.60;;;11.70;72.90;;;;;;5074808;28;20484;-50
2021/05/25 08:11:36;;;;;;;0.40;0.30;;;11.70;72.80;;;;;;5079668;28;20825;-50
2021/05/25 08:14:09;;;;;;;0.50;0.47;;;11.70;72.90;;;;;;5082208;28;20980;-50
2021/05/25 08:16:41;;;;;;;0.87;0.60;;;11.70;73.10;;;;;;5078941;28;20845;-50
2021/05/25 08:19:15;;;;;;;0.90;0.63;;;11.70;72.80;;;;;;5073167;28;21005;-50
2021/05/25 08:21:44;;;;;;;0.60;0.43;;;11.70;72.40;;;;;;5078948;28;21267;-50
2021/05/25 08:24:12;;;;;;;5.30;0.80;;;11.70;72.00;;;;;;5074081;28;20490;-50
2021/05/25 08:26:40;;;;;;;0.50;0.40;;;11.60;72.30;;;;;;5080656;28;20510;-50
2021/05/25 08:29:14;;;;;;;1.13;0.30;;;11.70;72.30;;;;;;5078813;28;20999;-51
2021/05/25 08:31:42;;;;;;;0.80;0.40;;;11.70;72.60;;;;;;5077760;28;20449;-50
2021/05/25 08:34:10;;;;;;;1.50;0.50;;;11.70;71.60;;;;;;5081632;28;20616;-50
2021/05/25 08:36:39;;;;;;;0.67;0.50;;;11.70;72.10;;;;;;5076231;28;20452;-50
2021/05/25 08:39:07;;;;;;;0.40;0.40;;;11.80;71.50;;;;;;5078734;28;20450;-50
2021/05/25 08:41:36;;;;;;;0.70;0.40;;;11.90;71.10;;;;;;5078054;28;20464;-50
2021/05/25 08:44:05;;;;;;;3.20;0.50;;;12.00;71.00;;;;;;5076416;28;20481;-50
2021/05/25 08:46:33;;;;;;;0.60;0.37;;;12.10;71.60;;;;;;5079659;28;20933;-50
2021/05/25 08:49:02;;;;;;;2.70;1.87;;;12.20;70.80;;;;;;5080757;28;20528;-50
2021/05/25 08:51:30;;;;;;;0.50;0.40;;;12.20;69.80;;;;;;5083832;28;20453;-50
2021/05/25 08:54:00;;;;;;;1.60;0.30;;;12.40;70.70;;;;;;5081401;28;20473;-50
2021/05/25 08:56:29;;;;;;;2.00;0.40;;;12.50;70.20;;;;;;5081416;28;20547;-50
2021/05/25 08:58:58;;;;;;;0.60;0.30;;;12.60;69.50;;;;;;5079365;28;20457;-50
2021/05/25 09:01:27;;;;;;;0.50;0.33;;;12.70;68.40;;;;;;5082134;28;20480;-50
2021/05/25 09:04:01;;;;;;;0.40;0.30;;;12.90;68.70;;;;;;5080895;28;20449;-50
2021/05/25 09:06:44;;;;;;;1.27;0.40;;;13.00;68.10;;;;;;5082189;28;20451;-50
2021/05/25 09:09:15;;;;;;;0.47;0.30;;;13.30;67.50;;;;;;5077865;28;20583;-50
2021/05/25 09:11:58;;;;;;;0.60;0.50;;;13.60;67.70;;;;;;5082407;28;20901;-50
2021/05/25 09:14:28;;;;;;;0.60;0.50;;;13.70;66.90;;;;;;5079156;28;20981;-50
2021/05/25 09:17:22;;;;;;;0.60;0.50;;;13.70;65.40;;;;;;5079764;28;20833;-50
2021/05/25 09:19:53;;;;;;;1.50;0.40;;;13.60;65.70;;;;;;5079682;28;20492;-50
2021/05/25 09:22:26;;;;;;;0.57;0.40;;;13.50;66.10;;;;;;5079848;28;20456;-50
2021/05/25 09:24:56;;;;;;;0.73;0.40;;;13.30;66.90;;;;;;5079730;28;20484;-50
2021/05/25 09:27:40;;;;;;;0.50;0.47;;;13.20;66.90;;;;;;5080484;28;20551;-51
2021/05/25 09:30:10;;;;;;;1.47;0.50;;;13.10;67.30;;;;;;5079897;28;21072;-50
2021/05/25 09:32:57;;;;;;;1.13;0.60;;;13.00;67.40;;;;;;5081786;28;20450;-50
2021/05/25 09:35:38;;;;;;;1.07;0.50;;;13.00;66.60;;;;;;5082417;28;20461;-50
2021/05/25 09:38:28;;;;;;;0.70;0.67;;;13.00;66.40;;;;;;5082982;28;20522;-50
2021/05/25 09:41:01;;;;;;;0.80;0.70;;;13.20;66.90;;;;;;5079799;28;20464;-50
2021/05/25 09:43:32;;;;;;;1.13;0.50;;;13.30;67.70;;;;;;5081001;28;20484;-50
2021/05/25 09:46:09;;;;;;;0.70;0.40;;;13.30;66.50;;;;;;5084592;28;20596;-50
2021/05/25 09:48:43;;;;;;;0.50;0.30;;;13.30;65.70;;;;;;5078617;28;20871;-51
2021/05/25 09:51:29;;;;;;;2.97;0.63;;;13.20;66.70;;;;;;5077633;28;20450;-50
2021/05/25 09:54:02;;;;;;;2.97;2.23;;;13.20;67.70;;;;;;5077118;28;20990;-50
2021/05/25 09:56:32;;;;;;;0.50;0.50;;;13.10;67.90;;;;;;5079968;28;20457;-50
2021/05/25 09:59:00;;;;;;;2.90;1.00;;;13.00;68.30;;;;;;5080125;28;20501;-50
2021/05/25 10:01:36;;;;;;;0.50;0.40;;;12.90;67.80;;;;;;5081587;28;20453;-50
2021/05/25 10:04:13;;;;;;;0.77;0.50;;;12.80;69.00;;;;;;5080031;28;20448;-50
2021/05/25 10:06:45;;;;;;;1.47;1.27;;;12.60;70.20;;;;;;5078723;28;20476;-50
2021/05/25 10:09:13;;;;;;;0.73;0.73;;;12.50;70.40;;;;;;5081390;28;20458;-50
2021/05/25 10:11:43;;;;;;;0.80;0.80;;;12.40;71.50;;;;;;5079349;28;20456;-50
2021/05/25 10:14:12;;;;;;;0.73;0.73;;;12.40;71.50;;;;;;5078809;28;20988;-50
2021/05/25 10:16:47;;;;;;;1.37;0.60;;;12.30;70.30;;;;;;5082653;28;20970;-50
2021/05/25 10:19:26;;;;;;;1.47;0.80;;;12.40;71.40;;;;;;5079414;28;21224;-50
2021/05/25 10:21:56;;;;;;;0.60;0.60;;;12.50;71.30;;;;;;5079582;28;20490;-50
2021/05/25 10:24:24;;;;;;;1.27;0.70;;;12.70;70.90;;;;;;5079787;28;20494;-50
2021/05/25 10:26:52;;;;;;;1.10;1.10;;;12.80;69.60;;;;;;5073440;28;20452;-50
2021/05/25 10:29:20;;;;;;;0.70;0.63;;;12.80;70.00;;;;;;5077597;28;20464;-50
2021/05/25 10:31:58;;;;;;;0.60;0.60;;;12.80;68.50;;;;;;5080562;28;20853;-50
2021/05/25 10:34:34;;;;;;;1.93;0.83;;;12.80;69.50;;;;;;5080604;28;20458;-50
2021/05/25 10:37:05;;;;;;;0.77;0.77;;;12.80;70.60;;;;;;5084660;28;20869;-50
2021/05/25 10:39:37;;;;;;;2.23;0.73;;;12.90;70.40;;;;;;5078847;28;20928;-51
2021/05/25 10:42:21;;;;;;;5.83;0.90;;;12.80;70.30;;;;;;5079339;28;20449;-51
2021/05/25 10:44:58;;;;;;;3.43;0.87;;;12.80;70.70;;;;;;5080237;28;20493;-50
2021/05/25 10:47:49;;;;;;;3.40;1.43;;;12.80;72.30;;;;;;5081230;28;20457;-50
2021/05/25 10:52:54;;;;;;;1.73;0.87;;;12.70;70.80;;;;;;5081310;28;20485;-50
2021/05/25 10:55:35;;;;;;;3.43;1.20;;;12.70;70.80;;;;;;5079935;28;20488;-50
2021/05/25 10:58:36;;;;;;;4.23;1.37;;;12.60;73.10;;;;;;5081640;28;20549;-49
2021/05/25 11:01:09;;;;;;;1.00;0.90;;;12.60;73.80;;;;;;5046224;28;20469;-50
2021/05/25 11:03:37;;;;;;;2.77;1.30;;;12.50;73.50;;;;;;5076115;28;20468;-50
2021/05/25 11:06:08;;;;;;;1.37;1.10;;;12.40;73.00;;;;;;5078757;28;20496;-49
2021/05/25 11:08:37;;;;;;;2.40;1.33;;;12.30;74.80;;;;;;5076082;28;20485;-51
2021/05/25 11:11:26;;;;;;;2.20;1.37;;;12.20;75.60;;;;;;5078213;28;20974;-50
2021/05/25 11:13:55;;;;;;;1.73;1.33;;;12.10;76.40;;;;;;5080307;28;20453;-50
2021/05/25 11:16:32;;;;;;;2.73;1.60;;;12.00;77.80;;;;;;5078620;28;20502;-49
2021/05/25 11:19:07;;;;;;;2.10;1.60;;;12.00;78.30;;;;;;5076922;28;20486;-48
2021/05/25 11:24:35;;;;;;;4.13;2.10;;;11.80;79.80;;;;;;5078142;28;20977;-50
2021/05/25 11:27:25;;;;;;;2.30;1.77;;;11.70;80.00;;;;;;5080018;28;20531;-50
2021/05/25 11:30:03;;;;;;;3.37;1.50;;;11.70;80.50;;;;;;5081507;28;20456;-50
2021/05/25 11:32:52;;;;;;;2.87;1.40;;;11.70;81.30;;;;;;5077664;28;20472;-50
2021/05/25 11:35:23;;;;;;;2.93;1.77;;;11.70;81.30;;;;;;5079867;28;20957;-49
2021/05/25 11:37:59;;;;;;;3.50;1.17;;;11.60;81.50;;;;;;5076218;28;20457;-50
2021/05/25 11:40:31;;;;;;;3.83;1.40;;;11.60;81.60;;;;;;5079644;28;20593;-50
2021/05/25 11:42:59;;;;;;;2.90;1.40;;;11.50;82.20;;;;;;5079284;28;20478;-50
2021/05/25 11:45:29;;;;;;;4.43;1.43;;;11.50;82.20;;;;;;5077350;28;20493;-50
2021/05/25 11:47:58;;;;;;;1.50;1.40;;;11.40;82.40;;;;;;5078697;28;20463;-50
2021/05/25 11:50:28;;;;;;;2.43;1.47;;;11.40;82.90;;;;;;5076680;28;20468;-50
2021/05/25 11:53:02;;;;;;;1.20;1.07;;;11.30;82.50;;;;;;5078518;28;20448;-50
2021/05/25 11:55:32;;;;;;;2.40;0.80;;;11.30;82.80;;;;;;5077636;28;20457;-50
2021/05/25 11:58:01;;;;;;;1.40;1.30;;;11.30;82.90;;;;;;5079379;28;20468;-50
2021/05/25 12:00:32;;;;;;;3.10;1.30;;;11.40;83.40;;;;;;5079787;28;20461;-50
2021/05/25 12:03:05;;;;;;;1.97;1.43;;;11.50;84.50;;;;;;5079723;28;20473;-50
2021/05/25 12:05:33;;;;;;;2.17;1.70;;;11.60;84.90;;;;;;5079699;28;20861;-49
2021/05/25 12:08:08;;;;;;;1.47;1.37;;;11.80;86.30;;;;;;5077601;28;20851;-49
2021/05/25 12:10:39;;;;;;;2.70;1.60;;;12.00;86.70;;;;;;5077890;28;20463;-49
2021/05/25 12:13:09;;;;;;;2.53;2.33;;;12.10;86.60;;;;;;5076190;28;20453;-50
2021/05/25 12:15:41;;;;;;;3.93;1.30;;;12.20;87.80;;;;;;5080735;28;20998;-49
2021/05/25 12:18:11;;;;;;;1.60;1.50;;;12.40;87.30;;;;;;5075499;28;20464;-50
2021/05/25 12:20:54;;;;;;;2.77;1.40;;;12.50;86.00;;;;;;5080302;28;20460;-49
2021/05/25 12:23:26;;;;;;;3.93;1.50;;;12.60;84.70;;;;;;5085134;28;20552;-49
2021/05/25 12:26:18;;;;;;;1.40;1.30;;;12.70;84.00;;;;;;5081927;28;20474;-49
2021/05/25 12:28:49;;;;;;;3.90;1.37;;;12.60;83.70;;;;;;5083082;28;20460;-49
2021/05/25 12:31:18;;;;;;;1.83;1.00;;;12.70;83.10;;;;;;5078654;28;20972;-49
2021/05/25 12:33:49;;;;;;;1.73;1.63;;;12.70;82.70;;;;;;5083341;28;21014;-48
2021/05/25 12:36:24;;;;;;;4.53;1.90;;;12.70;82.80;;;;;;5079173;28;20465;-49
2021/05/25 12:39:08;;;;;;;1.80;1.70;;;12.70;82.80;;;;;;5087107;28;21071;-49
2021/05/25 12:41:55;;;;;;;5.20;2.03;;;12.70;82.50;;;;;;5080498;28;20472;-49
2021/05/25 12:44:33;;;;;;;2.70;1.60;;;12.70;83.00;;;;;;5079663;28;20477;-49
2021/05/25 12:47:07;;;;;;;1.83;1.37;;;12.80;82.60;;;;;;5083136;28;20487;-49
2021/05/25 12:49:37;;;;;;;2.30;1.37;;;12.90;82.00;;;;;;5081854;28;20534;-49
2021/05/25 12:52:24;;;;;;;2.20;1.10;;;12.90;81.50;;;;;;5080726;28;20457;-49
2021/05/25 12:54:55;;;;;;;3.00;1.50;;;13.00;82.60;;;;;;5084370;28;20960;-49
2021/05/25 12:57:41;;;;;;;3.83;1.80;;;13.00;82.30;;;;;;5080921;28;20457;-49
2021/05/25 13:00:11;;;;;;;3.90;1.60;;;13.10;83.10;;;;;;5077888;28;21019;-49
2021/05/25 13:02:46;;;;;;;1.87;1.43;;;13.20;83.20;;;;;;5084881;28;20452;-49
2021/05/25 13:05:15;;;;;;;2.70;1.37;;;13.20;81.90;;;;;;5079103;28;20934;-49
2021/05/25 13:08:05;;;;;;;3.70;1.63;;;13.30;81.30;;;;;;5081923;28;20469;-49
2021/05/25 13:10:37;;;;;;;3.50;2.07;;;13.30;80.90;;;;;;5081121;28;20457;-49
2021/05/25 13:13:37;;;;;;;2.53;1.60;;;13.40;79.20;;;;;;5079433;28;20634;-49
2021/05/25 13:16:05;;;;;;;1.63;1.10;;;13.30;77.80;;;;;;5077774;28;20476;-49